sensor_id;sensor_type;location;lat;lon;timestamp;P1;durP1;ratioP1;P2;durP2;ratioP2
71108;SDS011;59614;51.012;-1.648;2022-12-24T00:01:18;58.00;;;8.60;;
71108;SDS011;59614;51.012;-1.648;2022-12-24T00:03:43;62.53;;;9.77;;
71108;SDS011;59614;51.012;-1.648;2022-12-24T00:06:12;51.83;;;6.63;;
71108;SDS011;59614;51.012;-1.648;2022-12-24T00:08:41;71.55;;;10.95;;
71108;SDS011;59614;51.012;-1.648;2022-12-24T00:11:06;57.47;;;7.78;;
71108;SDS011;59614;51.012;-1.648;2022-12-24T00:13:32;50.42;;;8.80;;
71108;SDS011;59614;51.012;-1.648;2022-12-24T00:15:58;59.13;;;8.07;;
71108;SDS011;59614;51.012;-1.648;2022-12-24T00:18:24;53.40;;;7.43;;
71108;SDS011;59614;51.012;-1.648;2022-12-24T00:20:49;50.30;;;6.78;;
71108;SDS011;59614;51.012;-1.648;2022-12-24T00:23:15;61.83;;;8.05;;
71108;SDS011;59614;51.012;-1.648;2022-12-24T00:25:41;62.65;;;9.88;;
71108;SDS011;59614;51.012;-1.648;2022-12-24T00:28:07;47.30;;;8.18;;
71108;SDS011;59614;51.012;-1.648;2022-12-24T00:30:33;69.63;;;8.93;;
71108;SDS011;59614;51.012;-1.648;2022-12-24T00:32:58;70.47;;;7.35;;
71108;SDS011;59614;51.012;-1.648;2022-12-24T00:35:24;52.70;;;6.78;;
71108;SDS011;59614;51.012;-1.648;2022-12-24T00:37:49;53.15;;;8.27;;
71108;SDS011;59614;51.012;-1.648;2022-12-24T00:40:15;48.17;;;7.20;;
71108;SDS011;59614;51.012;-1.648;2022-12-24T00:42:42;58.15;;;7.43;;
71108;SDS011;59614;51.012;-1.648;2022-12-24T00:45:07;61.90;;;7.78;;
71108;SDS011;59614;51.012;-1.648;2022-12-24T00:47:34;67.57;;;8.65;;
71108;SDS011;59614;51.012;-1.648;2022-12-24T00:49:59;67.70;;;8.05;;
71108;SDS011;59614;51.012;-1.648;2022-12-24T00:52:24;58.58;;;7.40;;
71108;SDS011;59614;51.012;-1.648;2022-12-24T00:54:50;67.45;;;8.82;;
71108;SDS011;59614;51.012;-1.648;2022-12-24T00:57:15;80.10;;;8.50;;
71108;SDS011;59614;51.012;-1.648;2022-12-24T00:59:41;57.78;;;6.47;;
71108;SDS011;59614;51.012;-1.648;2022-12-24T01:02:06;65.95;;;7.13;;
71108;SDS011;59614;51.012;-1.648;2022-12-24T01:04:32;58.88;;;8.13;;
71108;SDS011;59614;51.012;-1.648;2022-12-24T01:07:16;55.30;;;7.15;;
71108;SDS011;59614;51.012;-1.648;2022-12-24T01:09:41;62.85;;;7.38;;
71108;SDS011;59614;51.012;-1.648;2022-12-24T01:12:07;66.53;;;8.23;;
71108;SDS011;59614;51.012;-1.648;2022-12-24T01:14:32;72.90;;;8.05;;
71108;SDS011;59614;51.012;-1.648;2022-12-24T01:16:58;63.75;;;7.50;;
71108;SDS011;59614;51.012;-1.648;2022-12-24T01:19:23;67.72;;;7.97;;
71108;SDS011;59614;51.012;-1.648;2022-12-24T01:21:49;67.47;;;8.38;;
71108;SDS011;59614;51.012;-1.648;2022-12-24T01:24:14;67.68;;;7.90;;
71108;SDS011;59614;51.012;-1.648;2022-12-24T01:26:41;76.30;;;8.60;;
71108;SDS011;59614;51.012;-1.648;2022-12-24T01:29:07;89.35;;;8.00;;
71108;SDS011;59614;51.012;-1.648;2022-12-24T01:31:33;66.93;;;7.38;;
71108;SDS011;59614;51.012;-1.648;2022-12-24T01:33:58;63.10;;;8.52;;
71108;SDS011;59614;51.012;-1.648;2022-12-24T01:36:24;71.28;;;8.60;;
71108;SDS011;59614;51.012;-1.648;2022-12-24T01:38:50;78.35;;;7.35;;
71108;SDS011;59614;51.012;-1.648;2022-12-24T01:41:16;67.65;;;8.45;;
71108;SDS011;59614;51.012;-1.648;2022-12-24T01:47:03;60.17;;;7.28;;
71108;SDS011;59614;51.012;-1.648;2022-12-24T01:49:34;68.47;;;8.38;;
71108;SDS011;59614;51.012;-1.648;2022-12-24T01:52:06;55.00;;;7.47;;
71108;SDS011;59614;51.012;-1.648;2022-12-24T01:54:41;65.72;;;7.57;;
71108;SDS011;59614;51.012;-1.648;2022-12-24T01:59:52;59.50;;;7.53;;
71108;SDS011;59614;51.012;-1.648;2022-12-24T02:02:21;67.80;;;7.03;;
71108;SDS011;59614;51.012;-1.648;2022-12-24T02:07:26;63.58;;;8.98;;
71108;SDS011;59614;51.012;-1.648;2022-12-24T02:09:52;61.90;;;8.10;;
71108;SDS011;59614;51.012;-1.648;2022-12-24T02:12:24;63.88;;;7.60;;
71108;SDS011;59614;51.012;-1.648;2022-12-24T02:14:51;68.28;;;8.10;;
71108;SDS011;59614;51.012;-1.648;2022-12-24T02:17:31;47.53;;;6.72;;
71108;SDS011;59614;51.012;-1.648;2022-12-24T02:25:23;45.90;;;5.70;;
71108;SDS011;59614;51.012;-1.648;2022-12-24T02:30:29;55.65;;;6.18;;
71108;SDS011;59614;51.012;-1.648;2022-12-24T02:33:17;60.45;;;7.43;;
71108;SDS011;59614;51.012;-1.648;2022-12-24T02:38:32;63.50;;;6.03;;
71108;SDS011;59614;51.012;-1.648;2022-12-24T02:41:13;81.13;;;7.00;;
71108;SDS011;59614;51.012;-1.648;2022-12-24T02:43:44;62.83;;;7.25;;
71108;SDS011;59614;51.012;-1.648;2022-12-24T02:46:13;80.88;;;7.75;;
71108;SDS011;59614;51.012;-1.648;2022-12-24T02:48:43;51.13;;;7.25;;
71108;SDS011;59614;51.012;-1.648;2022-12-24T02:51:10;63.30;;;7.47;;
71108;SDS011;59614;51.012;-1.648;2022-12-24T02:53:36;64.82;;;6.47;;
71108;SDS011;59614;51.012;-1.648;2022-12-24T02:59:11;57.33;;;6.40;;
71108;SDS011;59614;51.012;-1.648;2022-12-24T03:07:12;57.22;;;6.93;;
71108;SDS011;59614;51.012;-1.648;2022-12-24T03:09:58;55.50;;;6.15;;
71108;SDS011;59614;51.012;-1.648;2022-12-24T03:12:37;49.60;;;6.50;;
71108;SDS011;59614;51.012;-1.648;2022-12-24T03:15:07;60.45;;;6.47;;
71108;SDS011;59614;51.012;-1.648;2022-12-24T03:17:35;58.58;;;6.05;;
71108;SDS011;59614;51.012;-1.648;2022-12-24T03:20:02;62.15;;;6.47;;
71108;SDS011;59614;51.012;-1.648;2022-12-24T03:22:30;52.00;;;7.32;;
71108;SDS011;59614;51.012;-1.648;2022-12-24T03:24:58;69.05;;;7.65;;
71108;SDS011;59614;51.012;-1.648;2022-12-24T03:27:24;57.25;;;7.35;;
71108;SDS011;59614;51.012;-1.648;2022-12-24T03:29:51;56.97;;;6.00;;
71108;SDS011;59614;51.012;-1.648;2022-12-24T03:32:21;71.03;;;7.13;;
71108;SDS011;59614;51.012;-1.648;2022-12-24T03:34:49;50.90;;;5.38;;
71108;SDS011;59614;51.012;-1.648;2022-12-24T03:37:14;62.97;;;6.72;;
71108;SDS011;59614;51.012;-1.648;2022-12-24T03:39:39;56.80;;;6.60;;
71108;SDS011;59614;51.012;-1.648;2022-12-24T03:42:05;50.17;;;5.95;;
71108;SDS011;59614;51.012;-1.648;2022-12-24T03:44:30;53.17;;;6.28;;
71108;SDS011;59614;51.012;-1.648;2022-12-24T03:46:56;53.03;;;6.07;;
71108;SDS011;59614;51.012;-1.648;2022-12-24T03:49:21;58.28;;;6.00;;
71108;SDS011;59614;51.012;-1.648;2022-12-24T03:51:47;48.08;;;5.93;;
71108;SDS011;59614;51.012;-1.648;2022-12-24T03:54:12;61.63;;;5.85;;
71108;SDS011;59614;51.012;-1.648;2022-12-24T03:56:37;56.72;;;6.40;;
71108;SDS011;59614;51.012;-1.648;2022-12-24T03:59:03;36.75;;;5.30;;
71108;SDS011;59614;51.012;-1.648;2022-12-24T04:01:28;63.20;;;5.90;;
71108;SDS011;59614;51.012;-1.648;2022-12-24T04:03:54;47.30;;;6.03;;
71108;SDS011;59614;51.012;-1.648;2022-12-24T04:06:19;53.38;;;7.15;;
71108;SDS011;59614;51.012;-1.648;2022-12-24T04:08:45;49.83;;;7.85;;
71108;SDS011;59614;51.012;-1.648;2022-12-24T04:11:11;41.83;;;4.97;;
71108;SDS011;59614;51.012;-1.648;2022-12-24T04:13:41;53.50;;;6.30;;
71108;SDS011;59614;51.012;-1.648;2022-12-24T04:16:08;44.72;;;5.63;;
71108;SDS011;59614;51.012;-1.648;2022-12-24T04:18:36;42.47;;;5.85;;
71108;SDS011;59614;51.012;-1.648;2022-12-24T04:21:02;52.60;;;6.55;;
71108;SDS011;59614;51.012;-1.648;2022-12-24T04:23:29;62.17;;;7.15;;
71108;SDS011;59614;51.012;-1.648;2022-12-24T04:25:57;37.42;;;5.82;;
71108;SDS011;59614;51.012;-1.648;2022-12-24T04:28:23;44.00;;;5.43;;
71108;SDS011;59614;51.012;-1.648;2022-12-24T04:30:49;44.50;;;5.60;;
71108;SDS011;59614;51.012;-1.648;2022-12-24T04:33:14;44.63;;;7.95;;
71108;SDS011;59614;51.012;-1.648;2022-12-24T04:35:40;50.80;;;5.25;;
71108;SDS011;59614;51.012;-1.648;2022-12-24T04:38:06;47.88;;;6.18;;
71108;SDS011;59614;51.012;-1.648;2022-12-24T04:40:35;38.22;;;5.55;;
71108;SDS011;59614;51.012;-1.648;2022-12-24T04:43:00;52.80;;;6.25;;
71108;SDS011;59614;51.012;-1.648;2022-12-24T04:45:25;54.50;;;5.85;;
71108;SDS011;59614;51.012;-1.648;2022-12-24T04:47:51;43.13;;;6.20;;
71108;SDS011;59614;51.012;-1.648;2022-12-24T04:50:16;50.35;;;6.78;;
71108;SDS011;59614;51.012;-1.648;2022-12-24T04:52:42;44.58;;;5.00;;
71108;SDS011;59614;51.012;-1.648;2022-12-24T04:55:07;50.55;;;5.85;;
71108;SDS011;59614;51.012;-1.648;2022-12-24T04:57:33;51.38;;;5.47;;
71108;SDS011;59614;51.012;-1.648;2022-12-24T05:00:00;48.65;;;5.93;;
71108;SDS011;59614;51.012;-1.648;2022-12-24T05:02:26;40.20;;;5.63;;
71108;SDS011;59614;51.012;-1.648;2022-12-24T05:04:51;46.22;;;5.82;;
71108;SDS011;59614;51.012;-1.648;2022-12-24T05:07:17;47.95;;;5.40;;
71108;SDS011;59614;51.012;-1.648;2022-12-24T05:09:42;41.22;;;5.10;;
71108;SDS011;59614;51.012;-1.648;2022-12-24T05:12:08;37.53;;;4.50;;
71108;SDS011;59614;51.012;-1.648;2022-12-24T05:14:33;35.42;;;5.00;;
71108;SDS011;59614;51.012;-1.648;2022-12-24T05:16:59;37.15;;;4.85;;
71108;SDS011;59614;51.012;-1.648;2022-12-24T05:19:24;38.88;;;5.70;;
71108;SDS011;59614;51.012;-1.648;2022-12-24T05:21:49;37.85;;;5.10;;
71108;SDS011;59614;51.012;-1.648;2022-12-24T05:24:35;43.42;;;5.55;;
71108;SDS011;59614;51.012;-1.648;2022-12-24T05:27:19;41.30;;;6.15;;
71108;SDS011;59614;51.012;-1.648;2022-12-24T05:29:45;34.10;;;4.50;;
71108;SDS011;59614;51.012;-1.648;2022-12-24T05:32:10;44.55;;;6.07;;
71108;SDS011;59614;51.012;-1.648;2022-12-24T05:34:36;32.40;;;4.18;;
71108;SDS011;59614;51.012;-1.648;2022-12-24T05:37:01;50.25;;;5.35;;
71108;SDS011;59614;51.012;-1.648;2022-12-24T05:39:27;35.35;;;4.32;;
71108;SDS011;59614;51.012;-1.648;2022-12-24T05:41:52;39.65;;;5.10;;
71108;SDS011;59614;51.012;-1.648;2022-12-24T05:44:18;33.83;;;4.50;;
71108;SDS011;59614;51.012;-1.648;2022-12-24T05:46:43;31.55;;;3.80;;
71108;SDS011;59614;51.012;-1.648;2022-12-24T05:49:09;26.73;;;4.15;;
71108;SDS011;59614;51.012;-1.648;2022-12-24T05:51:35;36.20;;;4.00;;
71108;SDS011;59614;51.012;-1.648;2022-12-24T05:54:00;24.20;;;4.10;;
71108;SDS011;59614;51.012;-1.648;2022-12-24T05:56:26;26.27;;;3.85;;
71108;SDS011;59614;51.012;-1.648;2022-12-24T05:58:52;22.75;;;3.70;;
71108;SDS011;59614;51.012;-1.648;2022-12-24T06:01:19;32.38;;;4.10;;
71108;SDS011;59614;51.012;-1.648;2022-12-24T06:03:46;33.55;;;4.70;;
71108;SDS011;59614;51.012;-1.648;2022-12-24T06:06:14;26.58;;;4.25;;
71108;SDS011;59614;51.012;-1.648;2022-12-24T06:08:43;26.92;;;3.80;;
71108;SDS011;59614;51.012;-1.648;2022-12-24T06:11:11;33.63;;;4.68;;
71108;SDS011;59614;51.012;-1.648;2022-12-24T06:13:38;38.65;;;4.35;;
71108;SDS011;59614;51.012;-1.648;2022-12-24T06:16:04;33.65;;;4.63;;
71108;SDS011;59614;51.012;-1.648;2022-12-24T06:18:32;38.13;;;5.25;;
71108;SDS011;59614;51.012;-1.648;2022-12-24T06:20:59;29.67;;;4.10;;
71108;SDS011;59614;51.012;-1.648;2022-12-24T06:23:25;24.98;;;3.97;;
71108;SDS011;59614;51.012;-1.648;2022-12-24T06:28:20;42.22;;;4.65;;
71108;SDS011;59614;51.012;-1.648;2022-12-24T06:30:46;45.72;;;4.68;;
71108;SDS011;59614;51.012;-1.648;2022-12-24T06:33:13;34.22;;;5.03;;
71108;SDS011;59614;51.012;-1.648;2022-12-24T06:35:39;42.22;;;4.70;;
71108;SDS011;59614;51.012;-1.648;2022-12-24T06:38:05;38.70;;;4.80;;
71108;SDS011;59614;51.012;-1.648;2022-12-24T06:40:31;41.65;;;4.85;;
71108;SDS011;59614;51.012;-1.648;2022-12-24T06:42:56;36.72;;;4.35;;
71108;SDS011;59614;51.012;-1.648;2022-12-24T06:45:22;33.25;;;4.18;;
71108;SDS011;59614;51.012;-1.648;2022-12-24T06:47:48;40.17;;;4.18;;
71108;SDS011;59614;51.012;-1.648;2022-12-24T06:50:13;26.80;;;4.35;;
71108;SDS011;59614;51.012;-1.648;2022-12-24T06:52:39;22.38;;;3.72;;
71108;SDS011;59614;51.012;-1.648;2022-12-24T06:55:04;23.50;;;3.42;;
71108;SDS011;59614;51.012;-1.648;2022-12-24T06:57:30;25.73;;;4.00;;
71108;SDS011;59614;51.012;-1.648;2022-12-24T06:59:56;22.58;;;3.38;;
71108;SDS011;59614;51.012;-1.648;2022-12-24T07:02:22;15.25;;;2.70;;
71108;SDS011;59614;51.012;-1.648;2022-12-24T07:04:48;32.67;;;4.85;;
71108;SDS011;59614;51.012;-1.648;2022-12-24T07:07:14;30.25;;;6.00;;
71108;SDS011;59614;51.012;-1.648;2022-12-24T07:09:39;42.25;;;10.25;;
71108;SDS011;59614;51.012;-1.648;2022-12-24T07:12:05;42.58;;;9.32;;
71108;SDS011;59614;51.012;-1.648;2022-12-24T07:14:30;37.58;;;8.63;;
71108;SDS011;59614;51.012;-1.648;2022-12-24T07:16:56;43.42;;;7.78;;
71108;SDS011;59614;51.012;-1.648;2022-12-24T07:19:22;55.30;;;9.98;;
71108;SDS011;59614;51.012;-1.648;2022-12-24T07:21:48;53.72;;;8.63;;
71108;SDS011;59614;51.012;-1.648;2022-12-24T07:24:14;27.95;;;5.78;;
71108;SDS011;59614;51.012;-1.648;2022-12-24T07:26:40;40.03;;;6.85;;
71108;SDS011;59614;51.012;-1.648;2022-12-24T07:29:05;43.17;;;6.03;;
71108;SDS011;59614;51.012;-1.648;2022-12-24T07:31:31;23.67;;;5.20;;
71108;SDS011;59614;51.012;-1.648;2022-12-24T07:33:56;26.30;;;5.07;;
71108;SDS011;59614;51.012;-1.648;2022-12-24T07:36:22;40.72;;;6.00;;
71108;SDS011;59614;51.012;-1.648;2022-12-24T07:38:48;29.73;;;4.70;;
71108;SDS011;59614;51.012;-1.648;2022-12-24T07:41:13;27.30;;;4.57;;
71108;SDS011;59614;51.012;-1.648;2022-12-24T07:43:39;39.65;;;5.07;;
71108;SDS011;59614;51.012;-1.648;2022-12-24T07:46:05;29.08;;;5.65;;
71108;SDS011;59614;51.012;-1.648;2022-12-24T07:48:31;31.35;;;5.63;;
71108;SDS011;59614;51.012;-1.648;2022-12-24T07:50:57;53.50;;;8.15;;
71108;SDS011;59614;51.012;-1.648;2022-12-24T07:53:23;42.67;;;7.15;;
71108;SDS011;59614;51.012;-1.648;2022-12-24T07:55:49;38.67;;;6.07;;
71108;SDS011;59614;51.012;-1.648;2022-12-24T07:58:15;32.75;;;5.43;;
71108;SDS011;59614;51.012;-1.648;2022-12-24T08:00:41;43.60;;;5.30;;
71108;SDS011;59614;51.012;-1.648;2022-12-24T08:03:08;36.70;;;6.20;;
71108;SDS011;59614;51.012;-1.648;2022-12-24T08:05:44;44.43;;;5.47;;
71108;SDS011;59614;51.012;-1.648;2022-12-24T08:08:10;31.50;;;4.72;;
71108;SDS011;59614;51.012;-1.648;2022-12-24T08:10:39;48.70;;;5.68;;
71108;SDS011;59614;51.012;-1.648;2022-12-24T08:13:06;39.65;;;5.53;;
71108;SDS011;59614;51.012;-1.648;2022-12-24T08:15:35;25.63;;;3.90;;
71108;SDS011;59614;51.012;-1.648;2022-12-24T08:18:02;26.40;;;4.80;;
71108;SDS011;59614;51.012;-1.648;2022-12-24T08:20:28;35.35;;;4.65;;
71108;SDS011;59614;51.012;-1.648;2022-12-24T08:22:53;35.88;;;4.78;;
71108;SDS011;59614;51.012;-1.648;2022-12-24T08:25:18;57.58;;;7.07;;
71108;SDS011;59614;51.012;-1.648;2022-12-24T08:27:44;25.10;;;5.85;;
71108;SDS011;59614;51.012;-1.648;2022-12-24T08:30:13;31.67;;;5.40;;
71108;SDS011;59614;51.012;-1.648;2022-12-24T08:32:43;19.55;;;4.15;;
71108;SDS011;59614;51.012;-1.648;2022-12-24T08:35:08;59.28;;;5.07;;
71108;SDS011;59614;51.012;-1.648;2022-12-24T08:37:34;23.98;;;4.88;;
71108;SDS011;59614;51.012;-1.648;2022-12-24T08:39:59;51.90;;;7.82;;
71108;SDS011;59614;51.012;-1.648;2022-12-24T08:42:24;42.83;;;21.23;;
71108;SDS011;59614;51.012;-1.648;2022-12-24T08:44:50;62.63;;;18.17;;
71108;SDS011;59614;51.012;-1.648;2022-12-24T08:47:15;39.63;;;21.10;;
71108;SDS011;59614;51.012;-1.648;2022-12-24T08:49:41;125.93;;;21.85;;
71108;SDS011;59614;51.012;-1.648;2022-12-24T08:52:06;51.42;;;12.52;;
71108;SDS011;59614;51.012;-1.648;2022-12-24T08:54:32;80.00;;;8.52;;
71108;SDS011;59614;51.012;-1.648;2022-12-24T08:56:57;68.05;;;10.57;;
71108;SDS011;59614;51.012;-1.648;2022-12-24T08:59:22;46.45;;;11.60;;
71108;SDS011;59614;51.012;-1.648;2022-12-24T09:01:48;75.07;;;7.65;;
71108;SDS011;59614;51.012;-1.648;2022-12-24T09:04:13;139.77;;;9.00;;
71108;SDS011;59614;51.012;-1.648;2022-12-24T09:06:39;39.22;;;7.30;;
71108;SDS011;59614;51.012;-1.648;2022-12-24T09:09:04;59.15;;;5.07;;
71108;SDS011;59614;51.012;-1.648;2022-12-24T09:11:30;149.18;;;8.73;;
71108;SDS011;59614;51.012;-1.648;2022-12-24T09:13:55;31.65;;;6.10;;
71108;SDS011;59614;51.012;-1.648;2022-12-24T09:16:21;57.05;;;3.92;;
71108;SDS011;59614;51.012;-1.648;2022-12-24T09:18:46;78.43;;;3.40;;
71108;SDS011;59614;51.012;-1.648;2022-12-24T09:21:13;12.13;;;3.10;;
71108;SDS011;59614;51.012;-1.648;2022-12-24T09:26:10;24.25;;;4.40;;
71108;SDS011;59614;51.012;-1.648;2022-12-24T09:28:57;37.55;;;5.15;;
71108;SDS011;59614;51.012;-1.648;2022-12-24T09:31:24;36.30;;;4.45;;
71108;SDS011;59614;51.012;-1.648;2022-12-24T09:33:51;38.67;;;4.38;;
71108;SDS011;59614;51.012;-1.648;2022-12-24T09:36:16;30.50;;;4.32;;
71108;SDS011;59614;51.012;-1.648;2022-12-24T09:38:42;34.95;;;4.40;;
71108;SDS011;59614;51.012;-1.648;2022-12-24T09:41:15;12.70;;;3.67;;
71108;SDS011;59614;51.012;-1.648;2022-12-24T09:46:58;32.13;;;4.60;;
71108;SDS011;59614;51.012;-1.648;2022-12-24T09:49:33;30.10;;;4.85;;
71108;SDS011;59614;51.012;-1.648;2022-12-24T09:52:07;37.97;;;5.47;;
71108;SDS011;59614;51.012;-1.648;2022-12-24T09:54:37;33.20;;;6.15;;
71108;SDS011;59614;51.012;-1.648;2022-12-24T09:57:23;23.52;;;5.20;;
71108;SDS011;59614;51.012;-1.648;2022-12-24T09:59:52;33.22;;;6.10;;
71108;SDS011;59614;51.012;-1.648;2022-12-24T10:02:19;37.17;;;6.05;;
71108;SDS011;59614;51.012;-1.648;2022-12-24T10:04:46;40.45;;;6.45;;
71108;SDS011;59614;51.012;-1.648;2022-12-24T10:12:50;48.00;;;7.38;;
71108;SDS011;59614;51.012;-1.648;2022-12-24T10:15:39;68.15;;;8.73;;
71108;SDS011;59614;51.012;-1.648;2022-12-24T10:20:44;44.45;;;7.43;;
71108;SDS011;59614;51.012;-1.648;2022-12-24T10:23:21;36.33;;;6.78;;
71108;SDS011;59614;51.012;-1.648;2022-12-24T10:25:51;39.03;;;6.15;;
71108;SDS011;59614;51.012;-1.648;2022-12-24T10:28:51;47.03;;;5.50;;
71108;SDS011;59614;51.012;-1.648;2022-12-24T10:31:25;45.53;;;6.07;;
71108;SDS011;59614;51.012;-1.648;2022-12-24T10:34:04;51.10;;;6.50;;
71108;SDS011;59614;51.012;-1.648;2022-12-24T10:36:44;43.50;;;8.38;;
71108;SDS011;59614;51.012;-1.648;2022-12-24T10:39:13;36.67;;;5.65;;
71108;SDS011;59614;51.012;-1.648;2022-12-24T10:41:42;41.08;;;6.82;;
71108;SDS011;59614;51.012;-1.648;2022-12-24T10:44:10;64.22;;;7.60;;
71108;SDS011;59614;51.012;-1.648;2022-12-24T10:46:41;51.28;;;7.22;;
71108;SDS011;59614;51.012;-1.648;2022-12-24T10:49:21;65.65;;;8.05;;
71108;SDS011;59614;51.012;-1.648;2022-12-24T10:51:55;51.40;;;8.10;;
71108;SDS011;59614;51.012;-1.648;2022-12-24T10:54:27;63.72;;;9.60;;
71108;SDS011;59614;51.012;-1.648;2022-12-24T10:56:59;48.83;;;6.70;;
71108;SDS011;59614;51.012;-1.648;2022-12-24T11:01:55;53.38;;;7.18;;
71108;SDS011;59614;51.012;-1.648;2022-12-24T11:04:25;57.10;;;8.82;;
71108;SDS011;59614;51.012;-1.648;2022-12-24T11:09:29;59.72;;;8.43;;
71108;SDS011;59614;51.012;-1.648;2022-12-24T11:11:56;40.80;;;6.68;;
71108;SDS011;59614;51.012;-1.648;2022-12-24T11:14:24;60.97;;;6.78;;
71108;SDS011;59614;51.012;-1.648;2022-12-24T11:16:55;53.88;;;6.13;;
71108;SDS011;59614;51.012;-1.648;2022-12-24T11:22:17;53.92;;;7.28;;
71108;SDS011;59614;51.012;-1.648;2022-12-24T11:24:46;41.88;;;7.22;;
71108;SDS011;59614;51.012;-1.648;2022-12-24T11:27:49;54.80;;;7.28;;
71108;SDS011;59614;51.012;-1.648;2022-12-24T11:35:20;58.40;;;7.50;;
71108;SDS011;59614;51.012;-1.648;2022-12-24T11:37:48;66.07;;;7.60;;
71108;SDS011;59614;51.012;-1.648;2022-12-24T11:43:05;56.13;;;7.25;;
71108;SDS011;59614;51.012;-1.648;2022-12-24T11:45:36;53.88;;;6.50;;
71108;SDS011;59614;51.012;-1.648;2022-12-24T11:48:21;57.88;;;6.88;;
71108;SDS011;59614;51.012;-1.648;2022-12-24T11:51:00;46.67;;;7.00;;
71108;SDS011;59614;51.012;-1.648;2022-12-24T11:53:48;53.67;;;7.22;;
71108;SDS011;59614;51.012;-1.648;2022-12-24T11:59:08;61.47;;;6.72;;
71108;SDS011;59614;51.012;-1.648;2022-12-24T12:01:50;64.22;;;7.22;;
71108;SDS011;59614;51.012;-1.648;2022-12-24T12:09:32;59.33;;;6.78;;
71108;SDS011;59614;51.012;-1.648;2022-12-24T12:12:13;54.95;;;7.07;;
71108;SDS011;59614;51.012;-1.648;2022-12-24T12:14:49;55.95;;;6.75;;
71108;SDS011;59614;51.012;-1.648;2022-12-24T12:17:24;57.30;;;6.65;;
71108;SDS011;59614;51.012;-1.648;2022-12-24T12:25:21;75.97;;;8.13;;
71108;SDS011;59614;51.012;-1.648;2022-12-24T12:27:51;62.00;;;8.63;;
71108;SDS011;59614;51.012;-1.648;2022-12-24T12:30:20;83.10;;;8.27;;
71108;SDS011;59614;51.012;-1.648;2022-12-24T12:35:36;58.97;;;7.28;;
71108;SDS011;59614;51.012;-1.648;2022-12-24T12:38:15;72.72;;;8.68;;
71108;SDS011;59614;51.012;-1.648;2022-12-24T12:46:17;53.08;;;6.75;;
71108;SDS011;59614;51.012;-1.648;2022-12-24T12:48:55;65.18;;;7.65;;
71108;SDS011;59614;51.012;-1.648;2022-12-24T12:51:25;58.60;;;7.38;;
71108;SDS011;59614;51.012;-1.648;2022-12-24T12:56:34;62.47;;;6.97;;
71108;SDS011;59614;51.012;-1.648;2022-12-24T12:59:02;57.60;;;6.47;;
71108;SDS011;59614;51.012;-1.648;2022-12-24T13:01:52;51.55;;;6.80;;
71108;SDS011;59614;51.012;-1.648;2022-12-24T13:15:44;55.03;;;6.45;;
71108;SDS011;59614;51.012;-1.648;2022-12-24T13:21:02;45.90;;;6.07;;
71108;SDS011;59614;51.012;-1.648;2022-12-24T13:23:28;48.90;;;6.97;;
71108;SDS011;59614;51.012;-1.648;2022-12-24T13:25:55;46.45;;;6.07;;
71108;SDS011;59614;51.012;-1.648;2022-12-24T13:30:49;50.22;;;6.78;;
71108;SDS011;59614;51.012;-1.648;2022-12-24T13:38:32;46.03;;;6.95;;
71108;SDS011;59614;51.012;-1.648;2022-12-24T13:47:27;61.30;;;6.90;;
71108;SDS011;59614;51.012;-1.648;2022-12-24T13:49:43;45.08;;;5.30;;
71108;SDS011;59614;51.012;-1.648;2022-12-24T14:00:50;42.78;;;6.38;;
71108;SDS011;59614;51.012;-1.648;2022-12-24T14:11:23;43.57;;;6.90;;
71108;SDS011;59614;51.012;-1.648;2022-12-24T14:16:18;43.92;;;7.13;;
71108;SDS011;59614;51.012;-1.648;2022-12-24T14:21:37;41.30;;;6.97;;
71108;SDS011;59614;51.012;-1.648;2022-12-24T14:24:18;47.03;;;8.07;;
71108;SDS011;59614;51.012;-1.648;2022-12-24T14:30:04;55.83;;;6.70;;
71108;SDS011;59614;51.012;-1.648;2022-12-24T14:32:40;46.47;;;6.80;;
71108;SDS011;59614;51.012;-1.648;2022-12-24T14:37:37;48.47;;;7.20;;
71108;SDS011;59614;51.012;-1.648;2022-12-24T14:40:04;50.50;;;6.70;;
71108;SDS011;59614;51.012;-1.648;2022-12-24T14:42:33;67.40;;;7.73;;
71108;SDS011;59614;51.012;-1.648;2022-12-24T14:45:27;52.90;;;7.40;;
71108;SDS011;59614;51.012;-1.648;2022-12-24T14:47:57;51.08;;;7.28;;
71108;SDS011;59614;51.012;-1.648;2022-12-24T14:56:10;64.00;;;7.93;;
71108;SDS011;59614;51.012;-1.648;2022-12-24T14:58:39;64.90;;;7.25;;
71108;SDS011;59614;51.012;-1.648;2022-12-24T15:06:36;65.18;;;7.28;;
71108;SDS011;59614;51.012;-1.648;2022-12-24T15:09:18;48.85;;;7.90;;
71108;SDS011;59614;51.012;-1.648;2022-12-24T15:11:46;47.75;;;7.88;;
71108;SDS011;59614;51.012;-1.648;2022-12-24T15:14:13;47.45;;;7.40;;
71108;SDS011;59614;51.012;-1.648;2022-12-24T15:16:40;51.90;;;8.07;;
71108;SDS011;59614;51.012;-1.648;2022-12-24T15:19:19;65.90;;;7.32;;
71108;SDS011;59614;51.012;-1.648;2022-12-24T15:21:51;79.03;;;9.27;;
71108;SDS011;59614;51.012;-1.648;2022-12-24T15:24:28;49.53;;;7.10;;
71108;SDS011;59614;51.012;-1.648;2022-12-24T15:26:54;61.53;;;7.40;;
71108;SDS011;59614;51.012;-1.648;2022-12-24T15:29:21;57.22;;;7.43;;
71108;SDS011;59614;51.012;-1.648;2022-12-24T15:31:58;60.00;;;7.82;;
71108;SDS011;59614;51.012;-1.648;2022-12-24T15:37:00;59.92;;;7.72;;
71108;SDS011;59614;51.012;-1.648;2022-12-24T15:39:27;64.85;;;8.73;;
71108;SDS011;59614;51.012;-1.648;2022-12-24T15:41:53;64.28;;;7.32;;
71108;SDS011;59614;51.012;-1.648;2022-12-24T15:44:37;46.72;;;7.10;;
71108;SDS011;59614;51.012;-1.648;2022-12-24T15:47:05;52.67;;;7.03;;
71108;SDS011;59614;51.012;-1.648;2022-12-24T15:52:10;51.00;;;7.47;;
71108;SDS011;59614;51.012;-1.648;2022-12-24T15:57:14;51.22;;;6.63;;
71108;SDS011;59614;51.012;-1.648;2022-12-24T15:59:53;60.78;;;7.25;;
71108;SDS011;59614;51.012;-1.648;2022-12-24T16:05:17;45.95;;;6.20;;
71108;SDS011;59614;51.012;-1.648;2022-12-24T16:07:42;44.95;;;6.80;;
71108;SDS011;59614;51.012;-1.648;2022-12-24T16:13:50;46.15;;;6.88;;
71108;SDS011;59614;51.012;-1.648;2022-12-24T16:15:56;42.67;;;6.70;;
71108;SDS011;59614;51.012;-1.648;2022-12-24T16:18:37;61.45;;;7.43;;
71108;SDS011;59614;51.012;-1.648;2022-12-24T16:21:09;48.13;;;6.45;;
71108;SDS011;59614;51.012;-1.648;2022-12-24T16:23:46;55.67;;;6.97;;
71108;SDS011;59614;51.012;-1.648;2022-12-24T16:26:14;43.90;;;5.50;;
71108;SDS011;59614;51.012;-1.648;2022-12-24T16:28:40;50.30;;;6.35;;
71108;SDS011;59614;51.012;-1.648;2022-12-24T16:31:05;56.38;;;6.40;;
71108;SDS011;59614;51.012;-1.648;2022-12-24T16:33:31;49.55;;;6.43;;
71108;SDS011;59614;51.012;-1.648;2022-12-24T16:35:56;43.10;;;6.05;;
71108;SDS011;59614;51.012;-1.648;2022-12-24T16:38:22;55.58;;;6.70;;
71108;SDS011;59614;51.012;-1.648;2022-12-24T16:40:48;46.88;;;5.63;;
71108;SDS011;59614;51.012;-1.648;2022-12-24T16:43:13;41.88;;;7.43;;
71108;SDS011;59614;51.012;-1.648;2022-12-24T16:46:01;46.33;;;6.38;;
71108;SDS011;59614;51.012;-1.648;2022-12-24T16:48:38;53.90;;;8.40;;
71108;SDS011;59614;51.012;-1.648;2022-12-24T16:51:03;46.92;;;6.45;;
71108;SDS011;59614;51.012;-1.648;2022-12-24T16:53:29;60.88;;;7.20;;
71108;SDS011;59614;51.012;-1.648;2022-12-24T16:55:54;39.35;;;6.38;;
71108;SDS011;59614;51.012;-1.648;2022-12-24T16:58:20;47.10;;;6.25;;
71108;SDS011;59614;51.012;-1.648;2022-12-24T17:00:45;34.58;;;5.53;;
71108;SDS011;59614;51.012;-1.648;2022-12-24T17:03:11;32.88;;;5.57;;
71108;SDS011;59614;51.012;-1.648;2022-12-24T17:05:38;42.83;;;5.72;;
71108;SDS011;59614;51.012;-1.648;2022-12-24T17:08:09;41.95;;;5.22;;
71108;SDS011;59614;51.012;-1.648;2022-12-24T17:10:35;45.22;;;6.93;;
71108;SDS011;59614;51.012;-1.648;2022-12-24T17:13:00;44.03;;;6.40;;
71108;SDS011;59614;51.012;-1.648;2022-12-24T17:15:26;41.78;;;5.53;;